Terminal Aerodrome Forecast
Issued by NWS

Home | Current Version | Previous Version | Text Only | Print | Product List | Glossary Off
Versions: 1 2 3 4 5 6 7 8 9 10 11 12 13 14 15

000
FTUS43 KBIS 150726 AAA
TAFJMS
TAF AMD
KJMS 150726Z 1507/1606 30014KT P6SM FEW007 OVC012
     FM150800 34016KT 5SM -SN SCT007 OVC015
     FM151000 35019G27KT 6SM -SN BLSN BKN012 OVC025
     FM151400 35019G27KT 6SM -SN BLSN OVC020
     FM151700 34019G27KT 6SM BLSN OVC050
     FM152000 34018G27KT P6SM BKN090
     FM152300 32014KT P6SM BKN200
     FM160300 29011G19KT P6SM FEW250=

USA.gov is the U.S. government's official web portal to all federal, state and local government web resources and services.